createdAt,value
2017-12-16T00:00:02.061Z,3.47
2017-12-16T00:01:01.890Z,3.45
2017-12-16T00:02:01.862Z,3.42
2017-12-16T00:03:02.382Z,3.42
2017-12-16T00:04:04.191Z,3.41
2017-12-16T00:05:01.787Z,3.50
2017-12-16T00:06:01.475Z,3.28
2017-12-16T00:07:01.378Z,3.31
2017-12-16T00:08:01.289Z,3.29
2017-12-16T00:09:01.195Z,3.32
2017-12-16T00:10:01.196Z,3.31
2017-12-16T00:11:01.112Z,3.32
2017-12-16T00:12:01.010Z,3.25
2017-12-16T00:13:00.911Z,3.26
2017-12-16T00:14:00.825Z,3.29
2017-12-16T00:15:00.692Z,3.26
2017-12-16T00:16:00.635Z,3.22
2017-12-16T00:17:00.531Z,3.21
2017-12-16T00:18:00.486Z,3.14
2017-12-16T00:19:00.397Z,3.16
2017-12-16T00:20:00.271Z,3.18
2017-12-16T00:21:00.254Z,3.22
2017-12-16T00:22:00.268Z,3.22
2017-12-16T00:23:00.003Z,3.16
2017-12-16T00:23:59.946Z,3.22
2017-12-16T00:24:59.969Z,3.19
2017-12-16T00:25:59.747Z,3.23
2017-12-16T00:26:59.674Z,3.22
2017-12-16T00:27:59.827Z,3.18
2017-12-16T00:29:00.525Z,3.13
2017-12-16T00:30:01.196Z,3.21
2017-12-16T00:30:59.394Z,3.16
2017-12-16T00:31:59.305Z,3.13
2017-12-16T00:32:59.165Z,3.21
2017-12-16T00:33:59.104Z,3.18
2017-12-16T00:34:59.077Z,3.19
2017-12-16T00:35:58.900Z,3.18
2017-12-16T00:36:59.033Z,3.21
2017-12-16T00:37:58.740Z,3.11
2017-12-16T00:38:58.644Z,3.18
2017-12-16T00:39:58.861Z,3.08
2017-12-16T00:40:58.489Z,3.05
2017-12-16T00:41:58.441Z,3.10
2017-12-16T00:42:58.307Z,3.10
2017-12-16T00:43:58.265Z,2.95
2017-12-16T00:44:58.166Z,3.03
2017-12-16T00:45:58.161Z,3.01
2017-12-16T00:46:57.973Z,3.01
2017-12-16T00:47:57.882Z,3.07
2017-12-16T00:48:57.794Z,3.08
2017-12-16T00:49:57.792Z,3.07
2017-12-16T00:50:58.514Z,3.05
2017-12-16T00:51:57.540Z,3.00
2017-12-16T00:52:57.492Z,2.97
2017-12-16T00:53:57.498Z,3.01
2017-12-16T00:54:57.330Z,3.01
2017-12-16T00:55:57.217Z,3.07
2017-12-16T00:56:57.121Z,3.11
2017-12-16T00:57:57.846Z,3.01
2017-12-16T00:58:57.015Z,3.07
2017-12-16T00:59:56.930Z,3.05
2017-12-16T01:00:56.843Z,3.03
2017-12-16T01:01:56.839Z,2.97
2017-12-16T01:02:56.636Z,2.98
2017-12-16T01:03:56.555Z,3.03
2017-12-16T01:04:56.549Z,3.03
2017-12-16T01:05:56.362Z,3.05
2017-12-16T01:06:56.270Z,3.00
2017-12-16T01:07:56.468Z,3.00
2017-12-16T01:08:56.123Z,2.89
2017-12-16T01:09:56.188Z,2.92
2017-12-16T01:10:56.076Z,2.93
2017-12-16T01:11:56.202Z,2.95
2017-12-16T01:12:56.001Z,2.89
2017-12-16T01:13:55.732Z,2.97
2017-12-16T01:14:55.698Z,2.93
2017-12-16T01:15:55.615Z,2.95
2017-12-16T01:16:55.419Z,2.97
2017-12-16T01:17:55.942Z,2.93
2017-12-16T01:18:56.329Z,2.89
2017-12-16T01:19:55.162Z,2.92
2017-12-16T01:20:55.138Z,2.83
2017-12-16T01:21:55.313Z,2.93
2017-12-16T01:22:54.931Z,2.90
2017-12-16T01:23:54.853Z,2.90
2017-12-16T01:24:54.740Z,2.86
2017-12-16T01:25:54.966Z,2.87
2017-12-16T01:26:57.203Z,2.86
2017-12-16T01:27:54.553Z,2.90
2017-12-16T01:28:54.458Z,2.90
2017-12-16T01:29:54.362Z,2.92
2017-12-16T01:30:54.593Z,2.85
2017-12-16T01:31:54.172Z,2.89
2017-12-16T01:32:54.051Z,2.82
2017-12-16T01:33:55.330Z,2.77
2017-12-16T01:34:53.970Z,2.83
2017-12-16T01:35:53.807Z,2.83
2017-12-16T01:36:53.733Z,2.80
2017-12-16T01:37:53.720Z,2.87
2017-12-16T01:38:53.624Z,2.89
2017-12-16T01:39:53.503Z,2.92
2017-12-16T01:40:53.432Z,2.86
2017-12-16T01:41:53.439Z,2.77
2017-12-16T01:42:53.223Z,2.77
2017-12-16T01:43:53.453Z,2.83
2017-12-16T01:44:53.084Z,2.75
2017-12-16T01:45:52.955Z,2.79
2017-12-16T01:46:53.575Z,2.77
2017-12-16T01:47:52.869Z,2.69
2017-12-16T01:48:52.772Z,2.75
2017-12-16T01:49:53.066Z,2.60
2017-12-16T01:50:52.748Z,2.62
2017-12-16T01:51:52.484Z,2.65
2017-12-16T01:52:52.435Z,2.60
2017-12-16T01:53:52.276Z,2.60
2017-12-16T01:54:52.196Z,2.54
2017-12-16T01:55:52.221Z,2.61
2017-12-16T01:56:52.110Z,2.61
2017-12-16T01:57:51.995Z,2.60
2017-12-16T01:58:52.001Z,2.56
2017-12-16T01:59:52.540Z,2.60
2017-12-16T02:00:52.342Z,2.64
2017-12-16T02:01:51.632Z,2.71
2017-12-16T02:02:51.722Z,2.72
2017-12-16T02:03:51.420Z,2.65
2017-12-16T02:04:51.818Z,2.65
2017-12-16T02:05:52.172Z,2.67
2017-12-16T02:06:51.235Z,2.64
2017-12-16T02:07:51.142Z,2.77
2017-12-16T02:08:50.989Z,2.79
2017-12-16T02:09:50.904Z,2.79
2017-12-16T02:10:50.835Z,2.77
2017-12-16T02:11:50.779Z,2.75
2017-12-16T02:12:50.648Z,2.77
2017-12-16T02:13:50.583Z,2.69
2017-12-16T02:14:50.475Z,2.74
2017-12-16T02:15:50.396Z,2.72
2017-12-16T02:16:50.610Z,2.72
2017-12-16T02:17:50.299Z,2.80
2017-12-16T02:18:51.544Z,2.74
2017-12-16T02:19:52.780Z,2.77
2017-12-16T02:20:50.044Z,2.64
2017-12-16T02:21:49.904Z,2.57
2017-12-16T02:22:49.830Z,2.57
2017-12-16T02:23:50.328Z,2.57
2017-12-16T02:24:49.742Z,2.56
2017-12-16T02:25:49.545Z,2.51
2017-12-16T02:26:49.554Z,2.53
2017-12-16T02:27:50.276Z,2.46
2017-12-16T02:28:52.096Z,2.42
2017-12-16T02:29:49.981Z,2.42
2017-12-16T02:30:49.278Z,2.36
2017-12-16T02:31:49.177Z,2.35
2017-12-16T02:32:48.979Z,2.44
2017-12-16T02:33:48.883Z,2.38
2017-12-16T02:34:48.789Z,2.39
2017-12-16T02:35:48.793Z,2.33
2017-12-16T02:36:49.313Z,2.35
2017-12-16T02:37:49.525Z,2.31
2017-12-16T02:38:48.508Z,2.32
2017-12-16T02:39:48.571Z,2.39
2017-12-16T02:40:48.419Z,2.36
2017-12-16T02:41:48.530Z,2.38
2017-12-16T02:42:48.639Z,2.38
2017-12-16T02:43:48.341Z,2.38
2017-12-16T02:44:47.992Z,2.44
2017-12-16T02:45:48.411Z,2.47
2017-12-16T02:46:48.950Z,2.39
2017-12-16T02:47:47.730Z,2.43
2017-12-16T02:48:50.291Z,2.43
2017-12-16T02:49:47.867Z,2.53
2017-12-16T02:50:47.586Z,2.38
2017-12-16T02:51:48.430Z,2.33
2017-12-16T02:52:47.682Z,2.39
2017-12-16T02:53:47.177Z,2.39
2017-12-16T02:54:47.495Z,2.46
2017-12-16T02:55:46.988Z,2.54
2017-12-16T02:56:47.999Z,2.42
2017-12-16T02:57:47.001Z,2.61
2017-12-16T02:58:47.116Z,2.61
2017-12-16T02:59:49.242Z,2.57
2017-12-16T03:00:46.613Z,2.56
2017-12-16T03:01:46.822Z,2.51
2017-12-16T03:02:46.625Z,2.54
2017-12-16T03:03:46.326Z,2.56
2017-12-16T03:04:48.050Z,2.56
2017-12-16T03:05:46.372Z,2.54
2017-12-16T03:06:47.134Z,2.46
2017-12-16T03:07:46.163Z,2.38
2017-12-16T03:08:45.950Z,2.43
2017-12-16T03:09:46.264Z,2.38
2017-12-16T03:10:45.748Z,2.43
2017-12-16T03:11:46.486Z,2.36
2017-12-16T03:12:46.294Z,2.44
2017-12-16T03:13:45.956Z,2.39
2017-12-16T03:14:45.479Z,2.46
2017-12-16T03:15:45.793Z,2.44
2017-12-16T03:16:45.815Z,2.39
2017-12-16T03:17:45.192Z,2.42
2017-12-16T03:18:45.813Z,2.43
2017-12-16T03:19:45.038Z,2.46
2017-12-16T03:20:45.111Z,2.43
2017-12-16T03:21:44.833Z,2.38
2017-12-16T03:22:44.717Z,2.36
2017-12-16T03:23:44.824Z,2.42
2017-12-16T03:24:44.623Z,2.36
2017-12-16T03:25:45.143Z,2.43
2017-12-16T03:26:45.629Z,2.42
2017-12-16T03:27:44.544Z,2.44
2017-12-16T03:28:44.646Z,2.39
2017-12-16T03:29:44.559Z,2.38
2017-12-16T03:30:44.020Z,2.35
2017-12-16T03:31:45.078Z,2.38
2017-12-16T03:32:44.858Z,2.44
2017-12-16T03:33:44.076Z,2.38
2017-12-16T03:34:45.489Z,2.42
2017-12-16T03:35:43.782Z,2.47
2017-12-16T03:36:45.300Z,2.46
2017-12-16T03:37:43.487Z,2.49
2017-12-16T03:38:44.476Z,2.43
2017-12-16T03:39:45.242Z,2.42
2017-12-16T03:40:44.429Z,2.39
2017-12-16T03:41:43.081Z,2.54
2017-12-16T03:42:43.009Z,2.46
2017-12-16T03:43:43.516Z,2.47
2017-12-16T03:44:43.230Z,2.43
2017-12-16T03:45:43.925Z,2.42
2017-12-16T03:46:42.631Z,2.39
2017-12-16T03:47:42.635Z,2.38
2017-12-16T03:48:43.666Z,2.46
2017-12-16T03:49:44.413Z,2.38
2017-12-16T03:50:42.497Z,2.47
2017-12-16T03:51:43.278Z,2.50
2017-12-16T03:52:43.774Z,2.51
2017-12-16T03:53:42.291Z,2.38
2017-12-16T03:54:42.143Z,2.39
2017-12-16T03:55:41.972Z,2.42
2017-12-16T03:56:42.390Z,2.39
2017-12-16T03:57:42.294Z,2.31
2017-12-16T03:58:41.790Z,2.42
2017-12-16T03:59:42.092Z,2.46
2017-12-16T04:00:43.320Z,2.43
2017-12-16T04:01:42.569Z,2.38
2017-12-16T04:02:41.508Z,2.36
2017-12-16T04:03:41.210Z,2.39
2017-12-16T04:04:41.114Z,2.28
2017-12-16T04:05:41.046Z,2.33
2017-12-16T04:06:41.128Z,2.28
2017-12-16T04:07:41.172Z,2.35
2017-12-16T04:08:40.938Z,2.35
2017-12-16T04:09:42.299Z,2.26
2017-12-16T04:10:42.359Z,2.38
2017-12-16T04:11:40.753Z,2.43
2017-12-16T04:12:40.760Z,2.32
2017-12-16T04:13:41.559Z,2.32
2017-12-16T04:14:41.738Z,2.28
2017-12-16T04:15:40.254Z,2.28
2017-12-16T04:16:41.914Z,2.22
2017-12-16T04:17:40.719Z,2.24
2017-12-16T04:18:43.128Z,2.18
2017-12-16T04:19:39.857Z,2.14
2017-12-16T04:20:39.718Z,2.15
2017-12-16T04:21:39.723Z,2.20
2017-12-16T04:22:39.585Z,2.25
2017-12-16T04:23:39.541Z,2.31
2017-12-16T04:24:41.840Z,2.25
2017-12-16T04:25:40.310Z,2.18
2017-12-16T04:26:40.741Z,2.29
2017-12-16T04:27:40.122Z,2.29
2017-12-16T04:28:39.095Z,2.32
2017-12-16T04:29:39.015Z,2.26
2017-12-16T04:30:39.042Z,2.29
2017-12-16T04:31:38.784Z,2.28
2017-12-16T04:32:42.302Z,2.29
2017-12-16T04:33:38.606Z,2.28
2017-12-16T04:34:38.523Z,2.29
2017-12-16T04:35:38.471Z,2.29
2017-12-16T04:36:38.349Z,2.29
2017-12-16T04:37:38.372Z,2.31
2017-12-16T04:38:38.202Z,2.32
2017-12-16T04:39:38.100Z,2.29
2017-12-16T04:40:38.009Z,2.25
2017-12-16T04:41:37.924Z,2.26
2017-12-16T04:42:37.838Z,2.18
2017-12-16T04:43:37.759Z,2.14
2017-12-16T04:44:37.667Z,2.14
2017-12-16T04:45:37.591Z,2.14
2017-12-16T04:46:37.501Z,2.20
2017-12-16T04:47:37.484Z,2.18
2017-12-16T04:48:37.323Z,2.26
2017-12-16T04:49:37.239Z,2.22
2017-12-16T04:50:37.153Z,2.22
2017-12-16T04:51:37.118Z,2.20
2017-12-16T04:52:36.985Z,2.20
2017-12-16T04:53:36.896Z,2.20
2017-12-16T04:54:36.812Z,2.08
2017-12-16T04:55:36.735Z,2.10
2017-12-16T04:56:36.638Z,2.11
2017-12-16T04:57:36.565Z,2.13
2017-12-16T04:58:36.471Z,2.17
2017-12-16T04:59:36.401Z,2.13
2017-12-16T05:00:36.297Z,2.20
2017-12-16T05:01:37.308Z,2.20
2017-12-16T05:02:36.128Z,2.20
2017-12-16T05:03:36.042Z,2.14
2017-12-16T05:04:35.961Z,2.08
2017-12-16T05:05:35.871Z,2.15
2017-12-16T05:06:35.784Z,2.13
2017-12-16T05:07:35.701Z,2.10
2017-12-16T05:08:35.612Z,2.14
2017-12-16T05:09:35.526Z,2.17
2017-12-16T05:10:35.528Z,2.18
2017-12-16T05:11:35.534Z,2.17
2017-12-16T05:12:35.337Z,2.17
2017-12-16T05:13:35.307Z,2.28
2017-12-16T05:14:35.099Z,2.28
2017-12-16T05:15:35.015Z,2.29
2017-12-16T05:16:34.949Z,2.22
2017-12-16T05:17:37.764Z,2.29
2017-12-16T05:18:34.756Z,2.31
2017-12-16T05:19:35.284Z,2.28
2017-12-16T05:20:34.679Z,2.31
2017-12-16T05:21:34.510Z,2.35
2017-12-16T05:22:34.419Z,2.31
2017-12-16T05:23:34.331Z,2.26
2017-12-16T05:24:34.448Z,2.35
2017-12-16T05:25:35.904Z,2.29
2017-12-16T05:26:34.072Z,2.33
2017-12-16T05:27:34.108Z,2.38
2017-12-16T05:28:33.975Z,2.44
2017-12-16T05:29:33.817Z,2.36
2017-12-16T05:30:33.765Z,2.46
2017-12-16T05:31:33.689Z,2.54
2017-12-16T05:32:33.560Z,2.38
2017-12-16T05:33:33.476Z,2.42
2017-12-16T05:34:33.393Z,2.44
2017-12-16T05:35:33.351Z,2.49
2017-12-16T05:36:33.219Z,2.46
2017-12-16T05:37:33.328Z,2.51
2017-12-16T05:38:33.079Z,2.49
2017-12-16T05:39:33.003Z,2.49
2017-12-16T05:40:32.881Z,2.56
2017-12-16T05:41:32.792Z,2.60
2017-12-16T05:42:32.780Z,2.56
2017-12-16T05:43:34.264Z,2.56
2017-12-16T05:44:32.690Z,2.53
2017-12-16T05:45:32.494Z,2.64
2017-12-16T05:46:32.366Z,2.51
2017-12-16T05:47:32.406Z,2.56
2017-12-16T05:48:32.209Z,2.60
2017-12-16T05:49:32.109Z,2.53
2017-12-16T05:50:32.025Z,2.56
2017-12-16T05:51:31.966Z,2.61
2017-12-16T05:52:31.863Z,2.54
2017-12-16T05:53:31.934Z,2.71
2017-12-16T05:54:31.696Z,2.57
2017-12-16T05:55:31.644Z,2.64
2017-12-16T05:56:31.544Z,2.64
2017-12-16T05:57:31.427Z,2.68
2017-12-16T05:58:31.354Z,2.65
2017-12-16T05:59:31.258Z,2.79
2017-12-16T06:00:31.525Z,2.74
2017-12-16T06:01:31.087Z,2.72
2017-12-16T06:02:31.031Z,2.71
2017-12-16T06:03:30.980Z,2.79
2017-12-16T06:04:30.832Z,2.82
2017-12-16T06:05:30.789Z,2.80
2017-12-16T06:06:30.664Z,2.85
2017-12-16T06:07:30.599Z,2.74
2017-12-16T06:08:30.509Z,2.79
2017-12-16T06:09:30.405Z,2.82
2017-12-16T06:10:30.435Z,2.75
2017-12-16T06:11:30.316Z,2.82
2017-12-16T06:12:30.220Z,2.74
2017-12-16T06:13:30.087Z,2.72
2017-12-16T06:14:29.986Z,2.75
2017-12-16T06:15:29.935Z,2.74
2017-12-16T06:16:29.811Z,2.56
2017-12-16T06:17:30.255Z,2.62
2017-12-16T06:18:29.649Z,2.57
2017-12-16T06:19:29.758Z,2.61
2017-12-16T06:20:29.476Z,2.64
2017-12-16T06:21:29.394Z,2.57
2017-12-16T06:22:29.299Z,2.60
2017-12-16T06:23:29.213Z,2.62
2017-12-16T06:24:29.315Z,2.64
2017-12-16T06:25:29.492Z,2.71
2017-12-16T06:26:28.959Z,2.57
2017-12-16T06:27:28.949Z,2.62
2017-12-16T06:28:29.106Z,2.60
2017-12-16T06:29:28.756Z,2.65
2017-12-16T06:30:29.074Z,2.67
2017-12-16T06:31:28.543Z,2.65
2017-12-16T06:32:29.100Z,2.69
2017-12-16T06:33:28.418Z,2.75
2017-12-16T06:34:28.380Z,2.77
2017-12-16T06:35:28.228Z,2.69
2017-12-16T06:36:28.164Z,2.71
2017-12-16T06:37:28.044Z,2.79
2017-12-16T06:38:28.809Z,2.82
2017-12-16T06:39:29.773Z,2.77
2017-12-16T06:40:27.809Z,2.79
2017-12-16T06:41:27.713Z,2.80
2017-12-16T06:42:27.618Z,2.86
2017-12-16T06:43:27.571Z,2.85
2017-12-16T06:44:27.427Z,2.83
2017-12-16T06:45:27.465Z,2.82
2017-12-16T06:46:27.383Z,2.75
2017-12-16T06:47:27.197Z,2.83
2017-12-16T06:48:27.089Z,2.79
2017-12-16T06:49:28.325Z,2.83
2017-12-16T06:50:27.207Z,2.80
2017-12-16T06:51:26.906Z,2.83
2017-12-16T06:52:27.119Z,2.86
2017-12-16T06:53:26.716Z,2.82
2017-12-16T06:54:26.795Z,2.82
2017-12-16T06:55:26.523Z,2.82
2017-12-16T06:56:26.435Z,2.90
2017-12-16T06:57:26.442Z,2.95
2017-12-16T06:58:26.605Z,2.89
2017-12-16T06:59:26.546Z,2.90
2017-12-16T07:00:26.204Z,2.83
2017-12-16T07:01:26.003Z,2.87
2017-12-16T07:02:25.931Z,2.93
2017-12-16T07:03:25.816Z,2.95
2017-12-16T07:04:25.869Z,2.92
2017-12-16T07:05:26.082Z,2.93
2017-12-16T07:06:26.863Z,2.93
2017-12-16T07:07:25.482Z,2.92
2017-12-16T07:08:25.542Z,2.95
2017-12-16T07:09:25.343Z,2.97
2017-12-16T07:10:25.295Z,2.93
2017-12-16T07:11:25.151Z,2.93
2017-12-16T07:12:25.311Z,3.01
2017-12-16T07:13:25.294Z,2.89
2017-12-16T07:14:26.015Z,2.95
2017-12-16T07:15:24.815Z,2.93
2017-12-16T07:16:24.724Z,2.93
2017-12-16T07:17:24.935Z,3.03
2017-12-16T07:18:24.608Z,2.97
2017-12-16T07:19:24.619Z,2.93
2017-12-16T07:20:24.363Z,2.90
2017-12-16T07:21:24.300Z,2.92
2017-12-16T07:22:24.364Z,2.98
2017-12-16T07:23:24.362Z,3.00
2017-12-16T07:24:24.061Z,3.07
2017-12-16T07:25:23.946Z,3.07
2017-12-16T07:26:23.871Z,3.03
2017-12-16T07:27:23.776Z,3.00
2017-12-16T07:28:23.687Z,3.00
2017-12-16T07:29:23.790Z,3.03
2017-12-16T07:30:23.592Z,3.04
2017-12-16T07:31:23.459Z,3.01
2017-12-16T07:32:23.351Z,3.04
2017-12-16T07:33:23.281Z,3.14
2017-12-16T07:34:23.178Z,3.04
2017-12-16T07:35:23.119Z,3.01
2017-12-16T07:36:23.378Z,3.00
2017-12-16T07:37:23.744Z,3.11
2017-12-16T07:38:22.880Z,3.05
2017-12-16T07:39:22.834Z,3.07
2017-12-16T07:40:22.688Z,3.07
2017-12-16T07:41:22.592Z,2.95
2017-12-16T07:42:22.541Z,3.04
2017-12-16T07:43:22.452Z,2.98
2017-12-16T07:44:22.357Z,2.98
2017-12-16T07:45:22.246Z,3.07
2017-12-16T07:46:22.166Z,3.10
2017-12-16T07:47:22.071Z,3.07
2017-12-16T07:48:22.076Z,3.10
2017-12-16T07:49:21.914Z,3.11
2017-12-16T07:50:22.028Z,3.22
2017-12-16T07:51:21.733Z,3.11
2017-12-16T07:52:21.700Z,3.14
2017-12-16T07:53:21.596Z,3.21
2017-12-16T07:54:21.510Z,3.13
2017-12-16T07:55:21.408Z,3.18
2017-12-16T07:56:21.314Z,3.19
2017-12-16T07:57:21.301Z,3.14
2017-12-16T07:58:22.762Z,3.16
2017-12-16T07:59:21.128Z,3.23
2017-12-16T08:00:20.968Z,3.23
2017-12-16T08:01:20.988Z,3.22
2017-12-16T08:02:21.047Z,3.28
2017-12-16T08:03:20.849Z,3.22
2017-12-16T08:04:20.651Z,3.16
2017-12-16T08:05:20.555Z,3.19
2017-12-16T08:06:20.563Z,3.21
2017-12-16T08:07:20.469Z,3.19
2017-12-16T08:08:20.371Z,3.19
2017-12-16T08:09:24.169Z,3.21
2017-12-16T08:10:20.179Z,3.23
2017-12-16T08:11:20.092Z,3.22
2017-12-16T08:12:20.038Z,3.18
2017-12-16T08:13:19.894Z,3.28
2017-12-16T08:14:19.812Z,3.26
2017-12-16T08:15:20.214Z,3.28
2017-12-16T08:16:20.119Z,3.28
2017-12-16T08:17:20.219Z,3.36
2017-12-16T08:18:19.456Z,3.28
2017-12-16T08:19:19.535Z,3.42
2017-12-16T08:20:19.301Z,3.42
2017-12-16T08:21:19.232Z,3.40
2017-12-16T08:22:19.213Z,3.37
2017-12-16T08:23:21.602Z,3.42
2017-12-16T08:24:18.941Z,3.45
2017-12-16T08:25:18.877Z,3.47
2017-12-16T08:26:18.885Z,3.51
2017-12-16T08:27:18.766Z,3.53
2017-12-16T08:28:18.667Z,3.44
2017-12-16T08:29:18.518Z,3.55
2017-12-16T08:30:18.451Z,3.62
2017-12-16T08:31:18.379Z,3.59
2017-12-16T08:32:18.285Z,3.62
2017-12-16T08:33:18.882Z,3.69
2017-12-16T08:34:18.097Z,3.69
2017-12-16T08:35:18.104Z,3.66
2017-12-16T08:36:18.415Z,3.69
2017-12-16T08:37:17.955Z,3.77
2017-12-16T08:38:17.759Z,3.76
2017-12-16T08:39:17.718Z,3.78
2017-12-16T08:40:17.590Z,3.74
2017-12-16T08:41:17.834Z,3.66
2017-12-16T08:42:17.433Z,3.66
2017-12-16T08:43:17.504Z,3.69
2017-12-16T08:44:17.445Z,3.62
2017-12-16T08:45:17.556Z,3.53
2017-12-16T08:46:17.765Z,3.58
2017-12-16T08:47:17.774Z,3.63
2017-12-16T08:48:16.960Z,3.63
2017-12-16T08:49:16.910Z,3.60
2017-12-16T08:50:17.179Z,3.59
2017-12-16T08:51:16.777Z,3.62
2017-12-16T08:52:16.681Z,3.60
2017-12-16T08:53:18.404Z,3.68
2017-12-16T08:54:16.696Z,3.65
2017-12-16T08:55:16.397Z,3.62
2017-12-16T08:56:16.913Z,3.62
2017-12-16T08:57:16.716Z,3.68
2017-12-16T08:58:16.626Z,3.66
2017-12-16T08:59:16.018Z,3.63
2017-12-16T09:00:16.020Z,3.65
2017-12-16T09:01:15.823Z,3.63
2017-12-16T09:02:16.340Z,3.69
2017-12-16T09:03:16.924Z,3.65
2017-12-16T09:04:15.638Z,3.73
2017-12-16T09:05:16.258Z,3.77
2017-12-16T09:06:15.447Z,3.77
2017-12-16T09:07:15.351Z,3.80
2017-12-16T09:08:15.562Z,3.80
2017-12-16T09:09:15.570Z,3.78
2017-12-16T09:10:15.604Z,3.81
2017-12-16T09:11:15.072Z,3.76
2017-12-16T09:12:15.180Z,3.84
2017-12-16T09:13:14.880Z,3.78
2017-12-16T09:14:16.120Z,3.87
2017-12-16T09:15:14.689Z,3.83
2017-12-16T09:16:14.695Z,3.86
2017-12-16T09:17:14.591Z,3.91
2017-12-16T09:18:14.462Z,3.88
2017-12-16T09:19:14.318Z,3.94
2017-12-16T09:20:14.315Z,3.86
2017-12-16T09:21:14.833Z,3.95
2017-12-16T09:22:14.431Z,3.95
2017-12-16T09:23:14.951Z,3.94
2017-12-16T09:24:14.075Z,3.88
2017-12-16T09:25:14.084Z,3.86
2017-12-16T09:26:13.907Z,3.94
2017-12-16T09:27:13.645Z,3.95
2017-12-16T09:28:13.858Z,3.98
2017-12-16T09:29:16.499Z,3.96
2017-12-16T09:30:14.897Z,3.98
2017-12-16T09:31:13.878Z,3.95
2017-12-16T09:32:13.475Z,3.94
2017-12-16T09:33:15.119Z,3.92
2017-12-16T09:34:13.390Z,3.96
2017-12-16T09:35:13.395Z,3.98
2017-12-16T09:36:13.502Z,3.98
2017-12-16T09:37:12.897Z,3.92
2017-12-16T09:38:12.757Z,3.92
2017-12-16T09:39:12.855Z,3.95
2017-12-16T09:40:13.430Z,3.88
2017-12-16T09:41:13.136Z,3.98
2017-12-16T09:42:12.625Z,3.88
2017-12-16T09:43:13.042Z,3.86
2017-12-16T09:44:12.636Z,3.86
2017-12-16T09:45:12.132Z,3.88
2017-12-16T09:46:12.343Z,3.81
2017-12-16T09:47:12.043Z,3.74
2017-12-16T09:48:11.935Z,3.80
2017-12-16T09:49:11.799Z,3.74
2017-12-16T09:50:11.756Z,3.70
2017-12-16T09:51:11.633Z,3.80
2017-12-16T09:52:11.973Z,3.63
2017-12-16T09:53:11.777Z,3.68
2017-12-16T09:54:12.298Z,3.60
2017-12-16T09:55:11.380Z,3.65
2017-12-16T09:56:11.797Z,3.69
2017-12-16T09:57:11.849Z,3.74
2017-12-16T09:58:11.710Z,3.73
2017-12-16T09:59:12.843Z,3.77
2017-12-16T10:00:11.025Z,3.77
2017-12-16T10:01:11.524Z,3.77
2017-12-16T10:02:11.025Z,3.81
2017-12-16T10:03:10.821Z,3.81
2017-12-16T10:04:11.488Z,3.80
2017-12-16T10:05:10.684Z,3.69
2017-12-16T10:06:10.434Z,3.84
2017-12-16T10:07:10.792Z,3.80
2017-12-16T10:08:11.855Z,3.81
2017-12-16T10:09:12.965Z,3.76
2017-12-16T10:10:13.381Z,3.83
2017-12-16T10:11:12.973Z,3.80
2017-12-16T10:12:09.836Z,3.80
2017-12-16T10:13:09.753Z,3.80
2017-12-16T10:14:09.670Z,3.76
2017-12-16T10:15:09.585Z,3.66
2017-12-16T10:16:09.888Z,3.77
2017-12-16T10:17:09.418Z,3.69
2017-12-16T10:18:09.334Z,3.69
2017-12-16T10:19:09.249Z,3.76
2017-12-16T10:20:09.166Z,3.74
2017-12-16T10:21:09.081Z,3.83
2017-12-16T10:22:08.996Z,3.78
2017-12-16T10:23:08.924Z,3.74
2017-12-16T10:24:08.829Z,3.86
2017-12-16T10:25:08.759Z,3.77
2017-12-16T10:26:08.661Z,3.77
2017-12-16T10:27:08.647Z,3.81
2017-12-16T10:28:08.491Z,3.76
2017-12-16T10:29:10.333Z,3.77
2017-12-16T10:30:08.346Z,3.77
2017-12-16T10:31:08.246Z,3.76
2017-12-16T10:32:08.156Z,3.78
2017-12-16T10:33:08.115Z,3.81
2017-12-16T10:34:07.986Z,3.80
2017-12-16T10:35:07.903Z,3.83
2017-12-16T10:36:08.078Z,3.87
2017-12-16T10:37:07.737Z,3.88
2017-12-16T10:38:07.688Z,3.87
2017-12-16T10:39:07.573Z,3.94
2017-12-16T10:40:07.495Z,3.99
2017-12-16T10:41:07.398Z,3.88
2017-12-16T10:42:07.865Z,3.92
2017-12-16T10:43:07.230Z,3.92
2017-12-16T10:44:07.151Z,4.02
2017-12-16T10:45:07.061Z,3.94
2017-12-16T10:46:06.978Z,3.92
2017-12-16T10:47:06.893Z,3.99
2017-12-16T10:48:06.808Z,4.01
2017-12-16T10:49:06.726Z,3.98
2017-12-16T10:50:06.646Z,4.06
2017-12-16T10:51:06.557Z,3.99
2017-12-16T10:52:06.551Z,4.04
2017-12-16T10:53:06.390Z,4.06
2017-12-16T10:54:06.306Z,4.06
2017-12-16T10:55:06.222Z,3.99
2017-12-16T10:56:06.136Z,4.04
2017-12-16T10:57:06.052Z,4.01
2017-12-16T10:58:05.971Z,3.94
2017-12-16T10:59:05.884Z,3.94
2017-12-16T11:00:05.802Z,4.01
2017-12-16T11:01:05.716Z,3.94
2017-12-16T11:02:05.631Z,4.06
2017-12-16T11:03:05.642Z,3.96
2017-12-16T11:04:05.467Z,4.02
2017-12-16T11:05:05.381Z,3.94
2017-12-16T11:06:05.319Z,3.92
2017-12-16T11:07:05.213Z,3.98
2017-12-16T11:08:05.129Z,3.95
2017-12-16T11:09:05.045Z,3.88
2017-12-16T11:10:04.972Z,3.96
2017-12-16T11:11:04.877Z,3.94
2017-12-16T11:12:04.793Z,3.94
2017-12-16T11:13:04.707Z,3.87
2017-12-16T11:14:04.624Z,3.91
2017-12-16T11:15:04.541Z,3.83
2017-12-16T11:16:04.462Z,3.86
2017-12-16T11:17:04.370Z,3.78
2017-12-16T11:18:04.289Z,3.76
2017-12-16T11:19:04.211Z,3.78
2017-12-16T11:20:04.118Z,3.78
2017-12-16T11:21:04.035Z,3.73
2017-12-16T11:22:03.954Z,3.73
2017-12-16T11:23:03.931Z,3.86
2017-12-16T11:24:03.906Z,3.81
2017-12-16T11:25:03.711Z,3.78
2017-12-16T11:26:03.614Z,3.74
2017-12-16T11:27:03.528Z,3.66
2017-12-16T11:28:03.445Z,3.66
2017-12-16T11:29:03.361Z,3.63
2017-12-16T11:30:03.274Z,3.76
2017-12-16T11:31:03.203Z,3.77
2017-12-16T11:32:03.134Z,3.77
2017-12-16T11:34:35.178Z,3.80
2017-12-16T11:35:35.007Z,3.80
2017-12-16T11:36:34.912Z,3.78
2017-12-16T11:37:34.849Z,3.74
2017-12-16T11:38:34.742Z,3.87
2017-12-16T11:39:34.658Z,3.88
2017-12-16T11:40:34.576Z,3.88
2017-12-16T11:41:34.487Z,3.91
2017-12-16T11:42:34.416Z,3.87
2017-12-16T11:43:34.349Z,3.92
2017-12-16T11:44:34.239Z,3.95
2017-12-16T11:45:34.155Z,3.94
2017-12-16T11:46:34.092Z,3.88
2017-12-16T11:47:33.984Z,3.88
2017-12-16T11:48:33.899Z,4.02
2017-12-16T11:49:33.816Z,3.96
2017-12-16T11:50:33.731Z,3.91
2017-12-16T11:51:33.650Z,3.94
2017-12-16T11:52:33.670Z,3.94
2017-12-16T11:53:33.568Z,4.01
2017-12-16T11:54:33.405Z,3.98
2017-12-16T11:55:33.309Z,4.02
2017-12-16T11:56:33.237Z,3.94
2017-12-16T11:57:33.139Z,3.96
2017-12-16T11:58:33.117Z,3.95
2017-12-16T11:59:32.973Z,4.02
2017-12-16T12:00:32.892Z,3.99
2017-12-16T12:01:32.804Z,4.04
2017-12-16T12:02:32.749Z,4.05
2017-12-16T12:03:32.637Z,3.92
2017-12-16T12:04:32.554Z,3.95
2017-12-16T12:05:32.467Z,3.95
2017-12-16T12:06:32.383Z,4.04
2017-12-16T12:07:32.299Z,3.94
2017-12-16T12:08:32.217Z,3.92
2017-12-16T12:09:32.130Z,4.12
2017-12-16T12:10:32.047Z,4.01
2017-12-16T12:11:31.983Z,4.02
2017-12-16T12:12:31.914Z,4.12
2017-12-16T12:13:31.794Z,4.06
2017-12-16T12:14:31.897Z,4.16
2017-12-16T12:15:31.626Z,4.10
2017-12-16T12:16:31.633Z,4.20
2017-12-16T12:17:31.642Z,4.13
2017-12-16T12:18:31.420Z,4.13
2017-12-16T12:19:31.360Z,4.19
2017-12-16T12:20:31.252Z,4.24
2017-12-16T12:21:31.189Z,4.24
2017-12-16T12:22:31.101Z,4.30
2017-12-16T12:23:31.072Z,4.19
2017-12-16T12:24:31.084Z,4.28
2017-12-16T12:25:30.859Z,4.20
2017-12-16T12:26:30.754Z,4.34
2017-12-16T12:27:30.677Z,4.22
2017-12-16T12:28:30.666Z,4.19
2017-12-16T12:29:30.466Z,4.23
2017-12-16T12:30:30.365Z,4.20
2017-12-16T12:31:30.284Z,4.26
2017-12-16T12:32:30.243Z,4.13
2017-12-16T12:33:30.132Z,4.22
2017-12-16T12:34:30.030Z,4.14
2017-12-16T12:35:30.022Z,4.22
2017-12-16T12:36:29.863Z,4.12
2017-12-16T12:37:29.778Z,4.12
2017-12-16T12:38:29.707Z,4.17
2017-12-16T12:39:29.640Z,4.08
2017-12-16T12:40:29.527Z,4.20
2017-12-16T12:41:29.448Z,4.12
2017-12-16T12:42:29.357Z,4.13
2017-12-16T12:43:29.361Z,4.12
2017-12-16T12:44:29.237Z,4.16
2017-12-16T12:45:29.143Z,4.16
2017-12-16T12:46:29.148Z,4.16
2017-12-16T12:47:28.950Z,4.10
2017-12-16T12:48:29.982Z,4.19
2017-12-16T12:49:28.786Z,4.16
2017-12-16T12:50:28.687Z,4.14
2017-12-16T12:51:28.603Z,4.14
2017-12-16T12:52:28.541Z,4.20
2017-12-16T12:53:28.481Z,4.12
2017-12-16T12:54:28.445Z,4.14
2017-12-16T12:55:28.267Z,4.20
2017-12-16T12:56:28.193Z,4.10
2017-12-16T12:57:28.097Z,4.12
2017-12-16T12:58:28.117Z,4.12
2017-12-16T12:59:27.933Z,3.96
2017-12-16T13:00:27.845Z,3.96
2017-12-16T13:01:27.817Z,3.96
2017-12-16T13:02:27.723Z,4.01
2017-12-16T13:03:27.730Z,3.96
2017-12-16T13:04:27.532Z,3.94
2017-12-16T13:05:27.437Z,3.99
2017-12-16T13:06:27.341Z,3.92
2017-12-16T13:07:27.281Z,3.95
2017-12-16T13:08:27.175Z,3.92
2017-12-16T13:09:27.224Z,3.96
2017-12-16T13:10:27.089Z,3.94
2017-12-16T13:11:27.093Z,3.98
2017-12-16T13:12:26.836Z,3.99
2017-12-16T13:13:26.775Z,3.92
2017-12-16T13:14:26.883Z,3.98
2017-12-16T13:15:26.590Z,3.98
2017-12-16T13:16:26.516Z,3.92
2017-12-16T13:17:26.494Z,3.87
2017-12-16T13:18:26.411Z,3.86